createdAt,value
2018-09-29T00:00:53.930Z,12.04
2018-09-29T00:03:23.043Z,12.08
2018-09-29T00:05:52.380Z,12.03
2018-09-29T00:08:21.483Z,11.92
2018-09-29T00:10:50.763Z,11.85
2018-09-29T00:13:19.947Z,11.79
2018-09-29T00:15:49.019Z,11.71
2018-09-29T00:18:18.096Z,11.70
2018-09-29T00:20:47.447Z,11.66
2018-09-29T00:23:16.502Z,11.59
2018-09-29T00:25:45.482Z,11.52
2018-09-29T00:28:14.636Z,11.46
2018-09-29T00:30:43.863Z,11.39
2018-09-29T00:33:12.816Z,11.38
2018-09-29T00:35:41.880Z,11.39
2018-09-29T00:38:11.201Z,11.44
2018-09-29T00:40:40.212Z,11.41
2018-09-29T00:43:09.366Z,11.32
2018-09-29T00:45:38.595Z,11.29
2018-09-29T00:48:07.607Z,11.30
2018-09-29T00:50:36.988Z,11.36
2018-09-29T00:53:06.004Z,11.37
2018-09-29T00:55:35.323Z,11.28
2018-09-29T00:58:04.501Z,11.24
2018-09-29T01:00:33.695Z,11.16
2018-09-29T01:03:02.829Z,11.10
2018-09-29T01:05:32.027Z,11.16
2018-09-29T01:08:01.125Z,11.14
2018-09-29T01:10:30.175Z,11.16
2018-09-29T01:12:59.409Z,11.18
2018-09-29T01:15:28.408Z,11.18
2018-09-29T01:17:57.659Z,11.22
2018-09-29T01:20:26.971Z,11.13
2018-09-29T01:22:56.251Z,11.06
2018-09-29T01:25:25.591Z,11.13
2018-09-29T01:27:54.804Z,11.11
2018-09-29T01:30:24.306Z,11.08
2018-09-29T01:32:53.236Z,10.98
2018-09-29T01:35:22.604Z,11.13
2018-09-29T01:37:51.920Z,11.11
2018-09-29T01:40:21.287Z,11.05
2018-09-29T01:42:50.530Z,11.02
2018-09-29T01:45:19.662Z,10.96
2018-09-29T01:47:48.591Z,11.15
2018-09-29T01:50:17.576Z,11.20
2018-09-29T01:52:46.862Z,11.22
2018-09-29T01:55:15.901Z,11.23
2018-09-29T01:57:45.115Z,11.27
2018-09-29T02:00:14.143Z,11.35
2018-09-29T02:02:43.406Z,11.36
2018-09-29T02:05:12.564Z,11.37
2018-09-29T02:07:41.853Z,11.41
2018-09-29T02:10:11.360Z,11.44
2018-09-29T02:12:40.297Z,11.49
2018-09-29T02:15:09.671Z,11.48
2018-09-29T02:17:38.988Z,11.50
2018-09-29T02:20:08.239Z,11.46
2018-09-29T02:22:37.179Z,11.50
2018-09-29T02:25:06.526Z,11.48
2018-09-29T02:27:35.395Z,11.51
2018-09-29T02:30:04.715Z,11.47
2018-09-29T02:32:33.784Z,11.37
2018-09-29T02:35:02.909Z,11.34
2018-09-29T02:37:32.291Z,11.26
2018-09-29T02:40:01.556Z,11.24
2018-09-29T02:42:30.871Z,11.18
2018-09-29T02:45:00.010Z,11.15
2018-09-29T02:47:29.278Z,11.06
2018-09-29T02:49:58.596Z,10.94
2018-09-29T02:52:27.912Z,10.86
2018-09-29T02:54:57.169Z,10.88
2018-09-29T02:57:26.046Z,10.84
2018-09-29T02:59:55.383Z,10.75
2018-09-29T03:02:24.783Z,10.69
2018-09-29T03:04:54.244Z,10.62
2018-09-29T03:07:23.637Z,10.60
2018-09-29T03:09:52.844Z,10.56
2018-09-29T03:12:22.048Z,10.55
2018-09-29T03:14:51.383Z,10.63
2018-09-29T03:17:20.678Z,10.61
2018-09-29T03:19:49.989Z,10.58
2018-09-29T03:22:19.084Z,10.69
2018-09-29T03:24:48.407Z,10.76
2018-09-29T03:27:17.586Z,10.90
2018-09-29T03:29:46.777Z,10.98
2018-09-29T03:32:16.010Z,11.00
2018-09-29T03:34:45.167Z,11.01
2018-09-29T03:37:14.039Z,11.14
2018-09-29T03:39:42.848Z,11.13
2018-09-29T03:42:11.891Z,10.92
2018-09-29T03:44:41.231Z,10.73
2018-09-29T03:47:10.483Z,10.62
2018-09-29T03:49:39.397Z,10.59
2018-09-29T03:52:08.672Z,10.73
2018-09-29T03:54:37.899Z,10.82
2018-09-29T03:57:06.839Z,10.70
2018-09-29T03:59:35.879Z,10.58
2018-09-29T04:02:05.067Z,10.44
2018-09-29T04:04:34.092Z,10.40
2018-09-29T04:07:03.304Z,10.51
2018-09-29T04:09:32.643Z,10.59
2018-09-29T04:12:02.016Z,10.55
2018-09-29T04:14:31.208Z,10.51
2018-09-29T04:17:00.501Z,10.64
2018-09-29T04:19:30.026Z,10.64
2018-09-29T04:21:59.251Z,10.79
2018-09-29T04:24:28.546Z,10.84
2018-09-29T04:26:57.647Z,10.87
2018-09-29T04:29:26.934Z,10.74
2018-09-29T04:31:56.189Z,10.70
2018-09-29T04:34:25.402Z,10.68
2018-09-29T04:36:54.723Z,10.72
2018-09-29T04:39:23.708Z,10.83
2018-09-29T04:41:52.872Z,10.93
2018-09-29T04:44:22.162Z,11.00
2018-09-29T04:46:51.472Z,11.04
2018-09-29T04:49:20.571Z,11.09
2018-09-29T04:51:49.455Z,11.23
2018-09-29T04:54:18.547Z,11.31
2018-09-29T04:56:48.073Z,11.35
2018-09-29T04:59:17.448Z,11.47
2018-09-29T05:01:46.596Z,11.67
2018-09-29T05:04:15.908Z,11.76
2018-09-29T05:06:44.995Z,11.80
2018-09-29T05:09:14.000Z,11.91
2018-09-29T05:11:43.183Z,12.01
2018-09-29T05:14:12.335Z,12.16
2018-09-29T05:16:41.440Z,12.42
2018-09-29T05:19:10.640Z,12.44
2018-09-29T05:21:40.034Z,12.65
2018-09-29T05:24:09.384Z,12.75
2018-09-29T05:26:38.566Z,12.91
2018-09-29T05:29:07.618Z,13.07
2018-09-29T05:31:36.804Z,13.23
2018-09-29T05:34:06.025Z,13.39
2018-09-29T05:36:35.417Z,13.72
2018-09-29T05:39:05.783Z,13.77
2018-09-29T05:41:35.086Z,13.84
2018-09-29T05:44:04.389Z,13.89
2018-09-29T05:46:33.741Z,13.96
2018-09-29T05:49:03.143Z,14.10
2018-09-29T05:51:32.591Z,14.26
2018-09-29T05:54:01.857Z,14.45
2018-09-29T05:56:31.128Z,14.53
2018-09-29T05:59:00.339Z,14.69
2018-09-29T06:01:29.702Z,14.75
2018-09-29T06:03:59.029Z,14.75
2018-09-29T06:06:31.088Z,14.75
2018-09-29T06:09:01.172Z,14.85
2018-09-29T06:11:30.984Z,14.95
2018-09-29T06:14:00.308Z,14.97
2018-09-29T06:16:29.545Z,15.00
2018-09-29T06:18:58.872Z,15.04
2018-09-29T06:21:28.235Z,15.07
2018-09-29T06:23:57.340Z,15.15
2018-09-29T06:26:26.575Z,15.25
2018-09-29T06:28:55.967Z,15.30
2018-09-29T06:31:24.968Z,15.38
2018-09-29T06:33:54.159Z,15.37
2018-09-29T06:36:22.994Z,15.37
2018-09-29T06:38:51.978Z,15.33
2018-09-29T06:41:21.093Z,15.42
2018-09-29T06:43:50.375Z,15.48
2018-09-29T06:46:19.735Z,15.61
2018-09-29T06:48:49.093Z,15.66
2018-09-29T06:51:18.165Z,15.74
2018-09-29T06:53:47.432Z,15.66
2018-09-29T06:56:16.735Z,15.72
2018-09-29T06:58:45.871Z,15.78
2018-09-29T07:01:15.157Z,15.86
2018-09-29T07:03:44.315Z,15.89
2018-09-29T07:06:13.620Z,15.99
2018-09-29T07:08:42.680Z,16.04
2018-09-29T07:11:12.037Z,16.12
2018-09-29T07:13:41.020Z,16.16
2018-09-29T07:16:09.963Z,16.15
2018-09-29T07:18:39.116Z,16.28
2018-09-29T07:21:08.281Z,16.45
2018-09-29T07:23:37.538Z,16.53
2018-09-29T07:26:06.493Z,16.68
2018-09-29T07:28:35.785Z,16.77
2018-09-29T07:31:05.117Z,16.84
2018-09-29T07:33:34.288Z,16.92
2018-09-29T07:36:03.537Z,16.83
2018-09-29T07:38:33.761Z,16.59
2018-09-29T07:41:02.983Z,16.29
2018-09-29T07:43:32.188Z,16.37
2018-09-29T07:46:01.452Z,16.49
2018-09-29T07:48:30.682Z,16.71
2018-09-29T07:50:59.991Z,16.91
2018-09-29T07:53:29.065Z,17.04
2018-09-29T07:55:58.401Z,17.21
2018-09-29T07:58:27.730Z,17.24
2018-09-29T08:00:57.043Z,17.14
2018-09-29T08:03:26.242Z,17.14
2018-09-29T08:05:55.613Z,17.26
2018-09-29T08:08:24.781Z,17.39
2018-09-29T08:10:53.739Z,17.49
2018-09-29T08:13:22.632Z,17.58
2018-09-29T08:15:51.709Z,17.70
2018-09-29T08:18:20.938Z,17.84
2018-09-29T08:20:50.295Z,17.98
2018-09-29T08:23:19.434Z,18.15
2018-09-29T08:25:49.531Z,18.30
2018-09-29T08:28:18.433Z,18.44
2018-09-29T08:30:47.439Z,18.61
2018-09-29T08:33:16.696Z,18.76
2018-09-29T08:35:45.992Z,18.94
2018-09-29T08:38:15.223Z,19.18
2018-09-29T08:40:45.107Z,19.30
2018-09-29T08:43:14.204Z,19.41
2018-09-29T08:45:43.547Z,19.44
2018-09-29T08:48:12.889Z,19.47
2018-09-29T08:50:41.877Z,19.47
2018-09-29T08:53:11.120Z,19.41
2018-09-29T08:55:40.335Z,19.36
2018-09-29T08:58:09.619Z,19.35
2018-09-29T09:00:38.994Z,19.32
2018-09-29T09:03:07.991Z,19.30
2018-09-29T09:05:37.143Z,19.37
2018-09-29T09:08:06.196Z,19.38
2018-09-29T09:10:35.220Z,19.44
2018-09-29T09:13:05.325Z,19.43
2018-09-29T09:15:34.396Z,19.48
2018-09-29T09:18:03.715Z,19.55
2018-09-29T09:20:32.951Z,19.59
2018-09-29T09:23:02.531Z,19.67
2018-09-29T09:25:31.731Z,19.69
2018-09-29T09:28:00.741Z,19.72
2018-09-29T09:30:30.029Z,19.73
2018-09-29T09:32:59.243Z,19.68
2018-09-29T09:35:28.556Z,19.68
2018-09-29T09:37:57.482Z,19.74
2018-09-29T09:40:26.839Z,19.75
2018-09-29T09:42:55.702Z,19.78
2018-09-29T09:45:24.680Z,19.85
2018-09-29T09:47:53.615Z,19.97
2018-09-29T09:50:22.938Z,20.16
2018-09-29T09:52:52.104Z,20.41
2018-09-29T09:55:21.060Z,20.70
2018-09-29T09:57:50.427Z,20.97
2018-09-29T10:00:19.735Z,21.08
2018-09-29T10:03:57.717Z,21.25
2018-09-29T10:06:27.040Z,21.41
2018-09-29T10:08:56.295Z,21.68
2018-09-29T10:11:25.529Z,22.05
2018-09-29T10:13:54.749Z,22.34
2018-09-29T10:16:24.723Z,22.23
2018-09-29T10:18:53.645Z,22.14
2018-09-29T10:21:22.539Z,22.00
2018-09-29T10:23:51.863Z,21.88
2018-09-29T10:26:21.192Z,21.87
2018-09-29T10:28:50.644Z,21.86
2018-09-29T10:31:19.575Z,21.76
2018-09-29T10:33:48.951Z,21.75
2018-09-29T10:36:18.344Z,21.68
2018-09-29T10:38:47.499Z,21.63
2018-09-29T10:41:16.751Z,21.62
2018-09-29T10:43:45.731Z,21.51
2018-09-29T10:46:15.041Z,21.49
2018-09-29T10:48:44.376Z,21.43
2018-09-29T10:51:13.626Z,21.25
2018-09-29T10:53:42.739Z,21.20
2018-09-29T10:56:11.998Z,21.07
2018-09-29T10:58:41.240Z,20.66
2018-09-29T11:01:10.192Z,20.67
2018-09-29T11:03:39.311Z,20.51
2018-09-29T11:06:08.603Z,20.23
2018-09-29T11:08:37.760Z,20.27
2018-09-29T11:11:07.162Z,20.36
2018-09-29T11:13:36.439Z,20.41
2018-09-29T11:16:05.500Z,20.39
2018-09-29T11:18:34.379Z,20.35
2018-09-29T11:21:03.546Z,20.35
2018-09-29T11:23:32.729Z,20.47
2018-09-29T11:26:02.133Z,20.37
2018-09-29T11:28:31.476Z,20.41
2018-09-29T11:31:00.935Z,20.48
2018-09-29T11:33:30.030Z,20.58
2018-09-29T11:35:59.418Z,20.67
2018-09-29T11:38:28.829Z,20.69
2018-09-29T11:40:58.241Z,20.68
2018-09-29T11:43:28.352Z,20.66
2018-09-29T11:45:57.979Z,20.37
2018-09-29T11:48:27.232Z,20.39
2018-09-29T11:50:57.197Z,20.16
2018-09-29T11:53:26.694Z,20.20
2018-09-29T11:55:56.598Z,20.10
2018-09-29T11:58:25.681Z,19.89
2018-09-29T12:00:55.094Z,19.86
2018-09-29T12:03:24.565Z,19.80
2018-09-29T12:05:53.852Z,19.82
2018-09-29T12:08:23.095Z,19.81
2018-09-29T12:10:52.142Z,19.74
2018-09-29T12:13:21.373Z,19.75
2018-09-29T12:15:50.740Z,19.72
2018-09-29T12:18:20.087Z,19.71
2018-09-29T12:20:49.392Z,19.68
2018-09-29T12:23:18.882Z,19.61
2018-09-29T12:25:47.779Z,19.53
2018-09-29T12:28:17.162Z,19.59
2018-09-29T12:30:46.267Z,19.56
2018-09-29T12:33:15.542Z,19.63
2018-09-29T12:35:45.089Z,19.60
2018-09-29T12:38:14.427Z,19.56
2018-09-29T12:40:43.384Z,19.58
2018-09-29T12:43:12.411Z,19.60
2018-09-29T12:45:41.758Z,19.54
2018-09-29T12:48:11.003Z,19.46
2018-09-29T12:50:40.252Z,19.47
2018-09-29T12:53:09.717Z,19.41
2018-09-29T12:55:38.977Z,19.41
2018-09-29T12:58:08.130Z,19.38
2018-09-29T13:00:37.363Z,19.25
2018-09-29T13:03:06.703Z,19.23
2018-09-29T13:05:35.796Z,19.23
2018-09-29T13:08:06.072Z,19.22
2018-09-29T13:10:35.399Z,19.17
2018-09-29T13:13:04.574Z,19.22
2018-09-29T13:15:33.827Z,19.16
2018-09-29T13:18:02.959Z,19.16
2018-09-29T13:20:32.195Z,19.15
2018-09-29T13:23:01.176Z,19.15
2018-09-29T13:25:30.219Z,19.14
2018-09-29T13:27:59.543Z,19.14
2018-09-29T13:30:29.044Z,19.15
2018-09-29T13:32:58.083Z,19.05
2018-09-29T13:35:27.172Z,19.03
2018-09-29T13:37:56.314Z,19.08
2018-09-29T13:40:25.687Z,19.09
2018-09-29T13:42:54.790Z,19.06
2018-09-29T13:45:24.205Z,18.96
2018-09-29T13:47:53.587Z,18.91
2018-09-29T13:50:22.599Z,18.97
2018-09-29T13:52:52.028Z,18.94
2018-09-29T13:55:21.073Z,18.93
2018-09-29T13:57:50.402Z,18.95
2018-09-29T14:00:19.719Z,18.97
2018-09-29T14:02:49.052Z,18.89
2018-09-29T14:05:18.387Z,18.89
2018-09-29T14:07:47.570Z,18.91
2018-09-29T14:10:16.771Z,18.97
2018-09-29T14:12:45.707Z,19.00
2018-09-29T14:15:14.647Z,19.11
2018-09-29T14:17:43.971Z,19.17
2018-09-29T14:20:13.208Z,19.20
2018-09-29T14:22:42.291Z,19.21
2018-09-29T14:25:11.735Z,19.21
2018-09-29T14:27:41.012Z,19.22
2018-09-29T14:30:10.352Z,19.31
2018-09-29T14:32:39.760Z,19.36
2018-09-29T14:35:09.076Z,19.39
2018-09-29T14:37:38.231Z,19.42
2018-09-29T14:40:07.789Z,19.42
2018-09-29T14:42:37.141Z,19.39
2018-09-29T14:45:06.499Z,19.31
2018-09-29T14:47:35.721Z,19.34
2018-09-29T14:50:05.192Z,19.23
2018-09-29T14:52:34.117Z,19.13
2018-09-29T14:55:03.383Z,19.00
2018-09-29T14:57:33.660Z,19.07
2018-09-29T15:00:03.671Z,19.04
2018-09-29T15:02:32.815Z,19.05
2018-09-29T15:05:02.264Z,18.99
2018-09-29T15:07:32.219Z,18.97
2018-09-29T15:10:01.471Z,18.93
2018-09-29T15:12:30.627Z,18.88
2018-09-29T15:15:00.158Z,18.76
2018-09-29T15:17:29.067Z,18.65
2018-09-29T15:19:58.334Z,18.55
2018-09-29T15:22:27.310Z,18.49
2018-09-29T15:24:56.610Z,18.35
2018-09-29T15:27:26.116Z,18.19
2018-09-29T15:29:55.369Z,18.05
2018-09-29T15:32:24.617Z,17.93
2018-09-29T15:34:54.494Z,17.81
2018-09-29T15:37:23.475Z,17.67
2018-09-29T15:39:53.792Z,17.59
2018-09-29T15:42:23.092Z,17.55
2018-09-29T15:44:52.281Z,17.54
2018-09-29T15:47:21.519Z,17.54
2018-09-29T15:49:50.757Z,17.49
2018-09-29T15:52:20.134Z,17.48
2018-09-29T15:54:49.529Z,17.52
2018-09-29T15:57:23.219Z,17.51
2018-09-29T15:59:52.904Z,17.47
2018-09-29T16:02:22.200Z,17.36
2018-09-29T16:04:51.395Z,17.34
2018-09-29T16:07:20.951Z,17.31
2018-09-29T16:09:51.031Z,17.26
2018-09-29T16:12:20.576Z,17.20
2018-09-29T16:14:49.944Z,17.14
2018-09-29T16:17:19.153Z,17.06
2018-09-29T16:19:48.677Z,17.00
2018-09-29T16:22:17.887Z,16.92
2018-09-29T16:24:47.156Z,16.85
2018-09-29T16:27:16.111Z,16.80
2018-09-29T16:29:45.167Z,16.78
2018-09-29T16:32:14.483Z,16.72
2018-09-29T16:34:43.519Z,16.69
2018-09-29T16:37:12.623Z,16.63
2018-09-29T16:39:42.608Z,16.58
2018-09-29T16:42:12.525Z,16.57
2018-09-29T16:44:41.847Z,16.61
2018-09-29T16:47:11.168Z,16.69
2018-09-29T16:49:40.685Z,16.69
2018-09-29T16:52:10.015Z,16.68
2018-09-29T16:54:39.247Z,16.65
2018-09-29T16:57:08.664Z,16.62
2018-09-29T16:59:38.284Z,16.63
2018-09-29T17:02:07.478Z,16.65
2018-09-29T17:04:37.071Z,16.66
2018-09-29T17:07:06.467Z,16.60
2018-09-29T17:09:35.475Z,16.51
2018-09-29T17:12:05.018Z,16.40
2018-09-29T17:14:35.016Z,16.45
2018-09-29T17:17:05.783Z,16.52
2018-09-29T17:19:34.975Z,16.43
2018-09-29T17:22:04.205Z,16.37
2018-09-29T17:24:33.656Z,16.32
2018-09-29T17:27:03.211Z,16.25
2018-09-29T17:29:32.533Z,16.21
2018-09-29T17:32:01.822Z,16.16
2018-09-29T17:34:31.244Z,16.13
2018-09-29T17:37:01.645Z,16.10
2018-09-29T17:39:30.905Z,16.07
2018-09-29T17:42:01.729Z,16.09
2018-09-29T17:44:35.829Z,16.07
2018-09-29T17:47:06.263Z,16.07
2018-09-29T17:49:36.409Z,16.09
2018-09-29T17:52:06.642Z,16.12
2018-09-29T17:54:36.267Z,16.04
2018-09-29T17:57:07.243Z,15.98
2018-09-29T17:59:36.807Z,15.94
2018-09-29T18:02:06.520Z,15.92
2018-09-29T18:04:39.942Z,15.91
2018-09-29T18:07:12.418Z,15.95
2018-09-29T18:09:42.311Z,15.90
2018-09-29T18:12:16.729Z,15.84
2018-09-29T18:14:47.473Z,15.81
2018-09-29T18:17:16.869Z,15.78
2018-09-29T18:19:46.780Z,15.68
2018-09-29T18:22:16.852Z,15.74
2018-09-29T18:24:46.855Z,15.67
2018-09-29T18:27:16.310Z,15.63
2018-09-29T18:29:45.718Z,15.68
2018-09-29T18:32:19.026Z,15.77
2018-09-29T18:34:49.635Z,15.72
2018-09-29T18:37:20.167Z,15.75
2018-09-29T18:39:49.503Z,15.72
2018-09-29T18:42:18.967Z,15.71
2018-09-29T18:44:48.785Z,15.75
2018-09-29T18:47:18.176Z,15.77
2018-09-29T18:49:52.779Z,15.70
2018-09-29T18:52:24.916Z,15.75
2018-09-29T18:54:55.350Z,15.73
2018-09-29T18:57:24.593Z,15.67
2018-09-29T18:59:53.908Z,15.69
2018-09-29T19:02:23.213Z,15.69
2018-09-29T19:04:52.402Z,15.71
2018-09-29T19:07:21.767Z,15.73
2018-09-29T19:09:50.955Z,15.71
2018-09-29T19:12:20.052Z,15.72
2018-09-29T19:14:49.249Z,15.68
2018-09-29T19:17:18.191Z,15.63
2018-09-29T19:19:47.589Z,15.61
2018-09-29T19:22:16.928Z,15.59
2018-09-29T19:24:45.899Z,15.55
2018-09-29T19:27:15.116Z,15.59
2018-09-29T19:29:44.501Z,15.61
2018-09-29T19:32:13.547Z,15.58
2018-09-29T19:34:43.199Z,15.56
2018-09-29T19:37:12.440Z,15.54
2018-09-29T19:39:41.893Z,15.52
2018-09-29T19:42:10.848Z,15.49
2018-09-29T19:44:39.752Z,15.46
2018-09-29T19:47:08.742Z,15.44
2018-09-29T19:49:37.950Z,15.39
2018-09-29T19:52:06.944Z,15.38
2018-09-29T19:54:36.444Z,15.36
2018-09-29T19:57:05.835Z,15.35
2018-09-29T19:59:34.725Z,15.34
2018-09-29T20:02:04.004Z,15.33
2018-09-29T20:04:33.174Z,15.34
2018-09-29T20:07:02.427Z,15.37
2018-09-29T20:09:31.719Z,15.39
2018-09-29T20:12:00.823Z,15.39
2018-09-29T20:14:29.701Z,15.35
2018-09-29T20:16:58.631Z,15.34
2018-09-29T20:19:27.993Z,15.36
2018-09-29T20:21:57.209Z,15.36
2018-09-29T20:24:26.179Z,15.35
2018-09-29T20:26:55.338Z,15.32
2018-09-29T20:29:24.288Z,15.25
2018-09-29T20:31:53.466Z,15.34
2018-09-29T20:34:22.728Z,15.33
2018-09-29T20:36:51.869Z,15.30
2018-09-29T20:39:21.195Z,15.28
2018-09-29T20:41:50.181Z,15.35
2018-09-29T20:44:19.163Z,15.28
2018-09-29T20:46:48.291Z,15.28
2018-09-29T20:49:17.557Z,15.34
2018-09-29T20:51:46.603Z,15.31
2018-09-29T20:54:15.887Z,15.36
2018-09-29T20:56:44.928Z,15.38
2018-09-29T20:59:13.998Z,15.34
2018-09-29T21:01:43.407Z,15.32
2018-09-29T21:04:12.611Z,15.29
2018-09-29T21:06:41.873Z,15.24
2018-09-29T21:09:11.107Z,15.32
2018-09-29T21:11:40.380Z,15.30
2018-09-29T21:14:09.942Z,15.29
2018-09-29T21:16:38.935Z,15.25
2018-09-29T21:19:08.208Z,15.31
2018-09-29T21:21:37.400Z,15.36
2018-09-29T21:24:06.502Z,15.34
2018-09-29T21:26:35.640Z,15.23
2018-09-29T21:29:04.900Z,15.30
2018-09-29T21:31:34.395Z,15.24
2018-09-29T21:34:03.738Z,15.29
2018-09-29T21:36:32.956Z,15.19
2018-09-29T21:39:02.159Z,15.04
2018-09-29T21:41:31.480Z,15.19
2018-09-29T21:44:00.483Z,15.20
2018-09-29T21:46:29.688Z,15.17
2018-09-29T21:48:58.951Z,15.15
2018-09-29T21:51:28.226Z,15.12
2018-09-29T21:53:57.578Z,15.23
2018-09-29T21:56:26.979Z,15.25
2018-09-29T21:58:55.915Z,15.22
2018-09-29T22:01:32.030Z,15.19
2018-09-29T22:04:02.218Z,15.20
2018-09-29T22:06:31.535Z,15.19
2018-09-29T22:09:00.922Z,15.30
2018-09-29T22:11:30.228Z,15.28
2018-09-29T22:13:59.447Z,15.23
2018-09-29T22:16:28.563Z,15.18
2018-09-29T22:18:58.104Z,15.15
2018-09-29T22:21:27.368Z,15.07
2018-09-29T22:23:56.467Z,15.12
2018-09-29T22:26:25.624Z,15.22
2018-09-29T22:28:54.922Z,15.19
2018-09-29T22:31:24.083Z,15.09
2018-09-29T22:33:53.257Z,15.08
2018-09-29T22:36:22.219Z,15.08
2018-09-29T22:38:51.124Z,15.08
2018-09-29T22:41:20.151Z,15.05
2018-09-29T22:43:49.095Z,15.08
2018-09-29T22:46:18.443Z,15.08
2018-09-29T22:48:47.743Z,15.11
2018-09-29T22:51:16.689Z,15.10
2018-09-29T22:53:45.616Z,15.13
2018-09-29T22:56:14.893Z,15.17
2018-09-29T22:58:43.911Z,15.17
2018-09-29T23:01:13.168Z,15.18
2018-09-29T23:03:42.407Z,15.11
2018-09-29T23:06:11.708Z,15.18
2018-09-29T23:08:40.828Z,15.20
2018-09-29T23:11:10.012Z,15.15
2018-09-29T23:13:39.189Z,15.11
2018-09-29T23:16:08.395Z,15.14
2018-09-29T23:18:37.720Z,15.13
2018-09-29T23:21:07.354Z,15.07
2018-09-29T23:23:36.495Z,15.07
2018-09-29T23:26:05.701Z,15.18
2018-09-29T23:28:34.792Z,15.24
2018-09-29T23:31:03.837Z,15.19
2018-09-29T23:33:33.223Z,15.15
2018-09-29T23:36:02.448Z,15.08
2018-09-29T23:38:31.651Z,15.07
2018-09-29T23:41:01.101Z,15.14
2018-09-29T23:43:29.984Z,15.11
2018-09-29T23:45:59.271Z,15.11
2018-09-29T23:48:28.303Z,15.09
2018-09-29T23:50:57.614Z,15.10
2018-09-29T23:53:26.912Z,15.07
2018-09-29T23:55:56.112Z,15.01
2018-09-29T23:58:25.352Z,14.87
